sensor_id;sensor_type;location;lat;lon;timestamp;P1;durP1;ratioP1;P2;durP2;ratioP2
3036;SDS011;1528;52.550;13.408;2023-04-07T00:00:12;17.73;;;16.57;;
3036;SDS011;1528;52.550;13.408;2023-04-07T00:02:58;16.57;;;15.57;;
3036;SDS011;1528;52.550;13.408;2023-04-07T00:05:45;16.00;;;15.00;;
3036;SDS011;1528;52.550;13.408;2023-04-07T00:08:32;16.27;;;15.27;;
3036;SDS011;1528;52.550;13.408;2023-04-07T00:11:17;16.60;;;15.50;;
3036;SDS011;1528;52.550;13.408;2023-04-07T00:14:02;16.10;;;14.90;;
3036;SDS011;1528;52.550;13.408;2023-04-07T00:16:48;17.73;;;16.53;;
3036;SDS011;1528;52.550;13.408;2023-04-07T00:19:34;17.80;;;16.33;;
3036;SDS011;1528;52.550;13.408;2023-04-07T00:22:19;17.80;;;16.50;;
3036;SDS011;1528;52.550;13.408;2023-04-07T00:25:07;17.80;;;16.70;;
3036;SDS011;1528;52.550;13.408;2023-04-07T00:27:53;19.07;;;17.73;;
3036;SDS011;1528;52.550;13.408;2023-04-07T00:30:39;17.77;;;16.47;;
3036;SDS011;1528;52.550;13.408;2023-04-07T00:33:24;16.73;;;15.73;;
3036;SDS011;1528;52.550;13.408;2023-04-07T00:36:10;18.53;;;17.30;;
3036;SDS011;1528;52.550;13.408;2023-04-07T00:38:56;18.50;;;17.40;;
3036;SDS011;1528;52.550;13.408;2023-04-07T00:41:42;16.03;;;15.03;;
3036;SDS011;1528;52.550;13.408;2023-04-07T00:44:28;16.50;;;15.50;;
3036;SDS011;1528;52.550;13.408;2023-04-07T00:47:14;18.47;;;17.20;;
3036;SDS011;1528;52.550;13.408;2023-04-07T00:49:59;17.13;;;16.03;;
3036;SDS011;1528;52.550;13.408;2023-04-07T00:52:47;17.43;;;16.37;;
3036;SDS011;1528;52.550;13.408;2023-04-07T00:55:32;18.70;;;17.60;;
3036;SDS011;1528;52.550;13.408;2023-04-07T00:58:19;19.70;;;18.70;;
3036;SDS011;1528;52.550;13.408;2023-04-07T01:01:06;17.00;;;15.97;;
3036;SDS011;1528;52.550;13.408;2023-04-07T01:03:56;18.53;;;17.27;;
3036;SDS011;1528;52.550;13.408;2023-04-07T01:06:47;18.20;;;17.20;;
3036;SDS011;1528;52.550;13.408;2023-04-07T01:09:36;20.63;;;19.33;;
3036;SDS011;1528;52.550;13.408;2023-04-07T01:12:27;17.50;;;16.30;;
3036;SDS011;1528;52.550;13.408;2023-04-07T01:15:20;19.23;;;18.13;;
3036;SDS011;1528;52.550;13.408;2023-04-07T01:18:09;19.10;;;17.90;;
3036;SDS011;1528;52.550;13.408;2023-04-07T01:21:00;19.10;;;17.90;;
3036;SDS011;1528;52.550;13.408;2023-04-07T01:23:51;19.07;;;17.60;;
3036;SDS011;1528;52.550;13.408;2023-04-07T01:26:52;18.97;;;17.87;;
3036;SDS011;1528;52.550;13.408;2023-04-07T01:29:45;18.17;;;17.07;;
3036;SDS011;1528;52.550;13.408;2023-04-07T01:32:33;18.53;;;17.33;;
3036;SDS011;1528;52.550;13.408;2023-04-07T01:35:21;19.30;;;17.80;;
3036;SDS011;1528;52.550;13.408;2023-04-07T01:38:09;16.93;;;15.93;;
3036;SDS011;1528;52.550;13.408;2023-04-07T01:40:56;17.30;;;16.30;;
3036;SDS011;1528;52.550;13.408;2023-04-07T01:43:43;17.20;;;16.20;;
3036;SDS011;1528;52.550;13.408;2023-04-07T01:46:32;17.73;;;16.70;;
3036;SDS011;1528;52.550;13.408;2023-04-07T01:49:18;17.90;;;16.90;;
3036;SDS011;1528;52.550;13.408;2023-04-07T01:52:04;18.70;;;17.53;;
3036;SDS011;1528;52.550;13.408;2023-04-07T01:54:51;18.23;;;17.03;;
3036;SDS011;1528;52.550;13.408;2023-04-07T01:57:37;17.43;;;16.23;;
3036;SDS011;1528;52.550;13.408;2023-04-07T02:00:23;18.70;;;17.67;;
3036;SDS011;1528;52.550;13.408;2023-04-07T02:03:10;18.50;;;17.37;;
3036;SDS011;1528;52.550;13.408;2023-04-07T02:06:05;18.20;;;17.10;;
3036;SDS011;1528;52.550;13.408;2023-04-07T02:08:53;17.80;;;16.27;;
3036;SDS011;1528;52.550;13.408;2023-04-07T02:11:43;18.20;;;17.20;;
3036;SDS011;1528;52.550;13.408;2023-04-07T02:14:29;18.97;;;17.87;;
3036;SDS011;1528;52.550;13.408;2023-04-07T02:17:16;18.37;;;17.17;;
3036;SDS011;1528;52.550;13.408;2023-04-07T02:20:04;20.40;;;19.00;;
3036;SDS011;1528;52.550;13.408;2023-04-07T02:22:52;32.10;;;28.67;;
3036;SDS011;1528;52.550;13.408;2023-04-07T02:25:38;30.40;;;27.70;;
3036;SDS011;1528;52.550;13.408;2023-04-07T02:28:24;25.43;;;23.47;;
3036;SDS011;1528;52.550;13.408;2023-04-07T02:31:09;23.67;;;21.77;;
3036;SDS011;1528;52.550;13.408;2023-04-07T02:33:56;23.83;;;22.23;;
3036;SDS011;1528;52.550;13.408;2023-04-07T02:36:43;21.73;;;20.23;;
3036;SDS011;1528;52.550;13.408;2023-04-07T02:39:28;21.23;;;19.63;;
3036;SDS011;1528;52.550;13.408;2023-04-07T02:42:14;17.70;;;16.53;;
3036;SDS011;1528;52.550;13.408;2023-04-07T02:44:59;18.67;;;17.23;;
3036;SDS011;1528;52.550;13.408;2023-04-07T02:47:45;17.43;;;16.33;;
3036;SDS011;1528;52.550;13.408;2023-04-07T02:50:31;18.17;;;16.97;;
3036;SDS011;1528;52.550;13.408;2023-04-07T02:53:18;16.97;;;15.77;;
3036;SDS011;1528;52.550;13.408;2023-04-07T02:56:03;16.70;;;15.80;;
3036;SDS011;1528;52.550;13.408;2023-04-07T02:58:49;17.50;;;16.50;;
3036;SDS011;1528;52.550;13.408;2023-04-07T03:01:35;18.60;;;17.47;;
3036;SDS011;1528;52.550;13.408;2023-04-07T03:04:21;18.70;;;17.40;;
3036;SDS011;1528;52.550;13.408;2023-04-07T03:07:07;17.77;;;16.77;;
3036;SDS011;1528;52.550;13.408;2023-04-07T03:09:54;15.63;;;14.63;;
3036;SDS011;1528;52.550;13.408;2023-04-07T03:12:40;16.83;;;15.83;;
3036;SDS011;1528;52.550;13.408;2023-04-07T03:15:25;17.17;;;15.97;;
3036;SDS011;1528;52.550;13.408;2023-04-07T03:18:11;16.67;;;15.57;;
3036;SDS011;1528;52.550;13.408;2023-04-07T03:20:57;17.03;;;15.87;;
3036;SDS011;1528;52.550;13.408;2023-04-07T03:26:12;16.40;;;15.30;;
3036;SDS011;1528;52.550;13.408;2023-04-07T03:28:57;16.83;;;15.80;;
3036;SDS011;1528;52.550;13.408;2023-04-07T03:31:43;17.77;;;16.57;;
3036;SDS011;1528;52.550;13.408;2023-04-07T03:34:29;17.10;;;15.97;;
3036;SDS011;1528;52.550;13.408;2023-04-07T03:37:15;18.03;;;16.97;;
3036;SDS011;1528;52.550;13.408;2023-04-07T03:40:00;16.47;;;15.47;;
3036;SDS011;1528;52.550;13.408;2023-04-07T03:42:47;17.33;;;16.23;;
3036;SDS011;1528;52.550;13.408;2023-04-07T03:45:33;18.63;;;17.47;;
3036;SDS011;1528;52.550;13.408;2023-04-07T03:48:18;17.50;;;16.20;;
3036;SDS011;1528;52.550;13.408;2023-04-07T03:51:04;19.47;;;18.17;;
3036;SDS011;1528;52.550;13.408;2023-04-07T03:53:50;16.83;;;15.83;;
3036;SDS011;1528;52.550;13.408;2023-04-07T03:56:36;17.93;;;17.03;;
3036;SDS011;1528;52.550;13.408;2023-04-07T03:59:23;17.90;;;16.80;;
3036;SDS011;1528;52.550;13.408;2023-04-07T04:02:08;17.53;;;16.40;;
3036;SDS011;1528;52.550;13.408;2023-04-07T04:04:54;18.97;;;17.87;;
3036;SDS011;1528;52.550;13.408;2023-04-07T04:07:40;17.03;;;15.93;;
3036;SDS011;1528;52.550;13.408;2023-04-07T04:10:26;18.77;;;17.17;;
3036;SDS011;1528;52.550;13.408;2023-04-07T04:13:11;16.90;;;15.80;;
3036;SDS011;1528;52.550;13.408;2023-04-07T04:15:58;19.23;;;17.83;;
3036;SDS011;1528;52.550;13.408;2023-04-07T04:18:44;17.63;;;16.53;;
3036;SDS011;1528;52.550;13.408;2023-04-07T04:21:30;19.17;;;17.87;;
3036;SDS011;1528;52.550;13.408;2023-04-07T04:24:16;17.60;;;16.40;;
3036;SDS011;1528;52.550;13.408;2023-04-07T04:27:01;17.43;;;16.33;;
3036;SDS011;1528;52.550;13.408;2023-04-07T04:29:47;19.70;;;18.30;;
3036;SDS011;1528;52.550;13.408;2023-04-07T04:32:34;17.87;;;16.77;;
3036;SDS011;1528;52.550;13.408;2023-04-07T04:35:19;18.70;;;17.50;;
3036;SDS011;1528;52.550;13.408;2023-04-07T04:38:05;21.37;;;19.87;;
3036;SDS011;1528;52.550;13.408;2023-04-07T04:40:51;19.30;;;18.00;;
3036;SDS011;1528;52.550;13.408;2023-04-07T04:43:37;21.10;;;19.70;;
3036;SDS011;1528;52.550;13.408;2023-04-07T04:46:23;18.17;;;17.00;;
3036;SDS011;1528;52.550;13.408;2023-04-07T04:49:10;19.10;;;17.90;;
3036;SDS011;1528;52.550;13.408;2023-04-07T04:51:55;18.27;;;17.07;;
3036;SDS011;1528;52.550;13.408;2023-04-07T04:54:41;19.60;;;18.40;;
3036;SDS011;1528;52.550;13.408;2023-04-07T04:57:26;20.37;;;18.87;;
3036;SDS011;1528;52.550;13.408;2023-04-07T05:00:12;18.50;;;17.00;;
3036;SDS011;1528;52.550;13.408;2023-04-07T05:02:58;19.43;;;17.93;;
3036;SDS011;1528;52.550;13.408;2023-04-07T05:05:47;17.60;;;16.57;;
3036;SDS011;1528;52.550;13.408;2023-04-07T05:08:32;19.60;;;18.20;;
3036;SDS011;1528;52.550;13.408;2023-04-07T05:11:18;18.07;;;16.87;;
3036;SDS011;1528;52.550;13.408;2023-04-07T05:14:04;17.93;;;16.50;;
3036;SDS011;1528;52.550;13.408;2023-04-07T05:16:50;18.00;;;16.87;;
3036;SDS011;1528;52.550;13.408;2023-04-07T05:19:37;19.40;;;18.20;;
3036;SDS011;1528;52.550;13.408;2023-04-07T05:22:24;18.80;;;17.50;;
3036;SDS011;1528;52.550;13.408;2023-04-07T05:25:09;19.37;;;18.13;;
3036;SDS011;1528;52.550;13.408;2023-04-07T05:27:56;20.23;;;18.60;;
3036;SDS011;1528;52.550;13.408;2023-04-07T05:30:42;19.00;;;17.73;;
3036;SDS011;1528;52.550;13.408;2023-04-07T05:33:28;20.10;;;18.77;;
3036;SDS011;1528;52.550;13.408;2023-04-07T05:36:13;20.17;;;18.70;;
3036;SDS011;1528;52.550;13.408;2023-04-07T05:39:00;19.43;;;18.03;;
3036;SDS011;1528;52.550;13.408;2023-04-07T05:41:46;19.07;;;17.77;;
3036;SDS011;1528;52.550;13.408;2023-04-07T05:44:31;20.17;;;18.80;;
3036;SDS011;1528;52.550;13.408;2023-04-07T05:47:17;19.53;;;18.33;;
3036;SDS011;1528;52.550;13.408;2023-04-07T05:50:03;18.50;;;17.30;;
3036;SDS011;1528;52.550;13.408;2023-04-07T05:52:49;21.30;;;20.07;;
3036;SDS011;1528;52.550;13.408;2023-04-07T05:55:36;18.27;;;16.83;;
3036;SDS011;1528;52.550;13.408;2023-04-07T05:58:22;20.20;;;18.90;;
3036;SDS011;1528;52.550;13.408;2023-04-07T06:01:08;19.10;;;17.90;;
3036;SDS011;1528;52.550;13.408;2023-04-07T06:03:54;22.90;;;21.30;;
3036;SDS011;1528;52.550;13.408;2023-04-07T06:06:41;19.40;;;18.30;;
3036;SDS011;1528;52.550;13.408;2023-04-07T06:09:28;19.20;;;18.10;;
3036;SDS011;1528;52.550;13.408;2023-04-07T06:12:15;20.47;;;19.17;;
3036;SDS011;1528;52.550;13.408;2023-04-07T06:15:01;21.57;;;20.33;;
3036;SDS011;1528;52.550;13.408;2023-04-07T06:17:47;19.90;;;18.67;;
3036;SDS011;1528;52.550;13.408;2023-04-07T06:20:32;21.83;;;20.00;;
3036;SDS011;1528;52.550;13.408;2023-04-07T06:23:18;21.13;;;19.83;;
3036;SDS011;1528;52.550;13.408;2023-04-07T06:26:04;19.60;;;18.13;;
3036;SDS011;1528;52.550;13.408;2023-04-07T06:28:51;20.57;;;19.13;;
3036;SDS011;1528;52.550;13.408;2023-04-07T06:31:36;20.80;;;19.57;;
3036;SDS011;1528;52.550;13.408;2023-04-07T06:34:22;20.30;;;19.00;;
3036;SDS011;1528;52.550;13.408;2023-04-07T06:37:07;21.03;;;19.60;;
3036;SDS011;1528;52.550;13.408;2023-04-07T06:39:52;20.47;;;19.07;;
3036;SDS011;1528;52.550;13.408;2023-04-07T06:42:38;20.97;;;19.60;;
3036;SDS011;1528;52.550;13.408;2023-04-07T06:45:25;22.37;;;20.70;;
3036;SDS011;1528;52.550;13.408;2023-04-07T06:48:11;21.43;;;20.03;;
3036;SDS011;1528;52.550;13.408;2023-04-07T06:50:56;24.50;;;22.73;;
3036;SDS011;1528;52.550;13.408;2023-04-07T06:53:42;21.97;;;20.17;;
3036;SDS011;1528;52.550;13.408;2023-04-07T06:56:29;21.50;;;20.10;;
3036;SDS011;1528;52.550;13.408;2023-04-07T06:59:15;22.30;;;20.77;;
3036;SDS011;1528;52.550;13.408;2023-04-07T07:02:02;22.17;;;20.67;;
3036;SDS011;1528;52.550;13.408;2023-04-07T07:04:53;22.20;;;20.70;;
3036;SDS011;1528;52.550;13.408;2023-04-07T07:07:39;19.73;;;18.33;;
3036;SDS011;1528;52.550;13.408;2023-04-07T07:10:28;20.47;;;19.20;;
3036;SDS011;1528;52.550;13.408;2023-04-07T07:13:14;21.10;;;19.73;;
3036;SDS011;1528;52.550;13.408;2023-04-07T07:16:05;21.40;;;20.00;;
3036;SDS011;1528;52.550;13.408;2023-04-07T07:18:52;22.40;;;21.00;;
3036;SDS011;1528;52.550;13.408;2023-04-07T07:21:38;22.17;;;20.80;;
3036;SDS011;1528;52.550;13.408;2023-04-07T07:24:24;21.87;;;20.53;;
3036;SDS011;1528;52.550;13.408;2023-04-07T07:27:09;23.00;;;21.43;;
3036;SDS011;1528;52.550;13.408;2023-04-07T07:29:58;19.87;;;18.60;;
3036;SDS011;1528;52.550;13.408;2023-04-07T07:32:47;17.40;;;16.33;;
3036;SDS011;1528;52.550;13.408;2023-04-07T07:35:34;19.63;;;18.23;;
3036;SDS011;1528;52.550;13.408;2023-04-07T07:38:21;18.17;;;17.17;;
3036;SDS011;1528;52.550;13.408;2023-04-07T07:41:06;17.63;;;16.73;;
3036;SDS011;1528;52.550;13.408;2023-04-07T07:43:52;18.67;;;17.33;;
3036;SDS011;1528;52.550;13.408;2023-04-07T07:46:38;18.63;;;17.27;;
3036;SDS011;1528;52.550;13.408;2023-04-07T07:49:25;15.90;;;14.90;;
3036;SDS011;1528;52.550;13.408;2023-04-07T07:52:12;17.13;;;16.13;;
3036;SDS011;1528;52.550;13.408;2023-04-07T07:54:58;16.40;;;15.40;;
3036;SDS011;1528;52.550;13.408;2023-04-07T07:57:43;17.30;;;16.30;;
3036;SDS011;1528;52.550;13.408;2023-04-07T08:00:29;17.93;;;16.97;;
3036;SDS011;1528;52.550;13.408;2023-04-07T08:03:15;18.53;;;17.63;;
3036;SDS011;1528;52.550;13.408;2023-04-07T08:06:02;19.73;;;18.43;;
3036;SDS011;1528;52.550;13.408;2023-04-07T08:08:50;19.97;;;18.83;;
3036;SDS011;1528;52.550;13.408;2023-04-07T08:11:35;21.17;;;19.77;;
3036;SDS011;1528;52.550;13.408;2023-04-07T08:14:21;21.63;;;20.53;;
3036;SDS011;1528;52.550;13.408;2023-04-07T08:17:06;19.50;;;18.50;;
3036;SDS011;1528;52.550;13.408;2023-04-07T08:19:52;20.50;;;19.50;;
3036;SDS011;1528;52.550;13.408;2023-04-07T08:22:38;19.27;;;18.27;;
3036;SDS011;1528;52.550;13.408;2023-04-07T08:25:25;16.10;;;15.10;;
3036;SDS011;1528;52.550;13.408;2023-04-07T08:28:10;14.63;;;13.77;;
3036;SDS011;1528;52.550;13.408;2023-04-07T08:30:56;15.27;;;14.47;;
3036;SDS011;1528;52.550;13.408;2023-04-07T08:33:41;14.23;;;13.43;;
3036;SDS011;1528;52.550;13.408;2023-04-07T08:36:27;16.77;;;15.77;;
3036;SDS011;1528;52.550;13.408;2023-04-07T08:39:14;17.83;;;16.93;;
3036;SDS011;1528;52.550;13.408;2023-04-07T08:42:01;14.63;;;13.93;;
3036;SDS011;1528;52.550;13.408;2023-04-07T08:44:47;16.27;;;15.57;;
3036;SDS011;1528;52.550;13.408;2023-04-07T08:47:35;14.87;;;14.13;;
3036;SDS011;1528;52.550;13.408;2023-04-07T08:50:21;17.03;;;16.13;;
3036;SDS011;1528;52.550;13.408;2023-04-07T08:53:11;14.80;;;14.00;;
3036;SDS011;1528;52.550;13.408;2023-04-07T08:55:58;14.87;;;13.97;;
3036;SDS011;1528;52.550;13.408;2023-04-07T08:58:47;17.00;;;16.00;;
3036;SDS011;1528;52.550;13.408;2023-04-07T09:01:33;16.87;;;15.87;;
3036;SDS011;1528;52.550;13.408;2023-04-07T09:04:19;13.50;;;12.70;;
3036;SDS011;1528;52.550;13.408;2023-04-07T09:07:05;15.40;;;14.47;;
3036;SDS011;1528;52.550;13.408;2023-04-07T09:09:51;15.00;;;14.10;;
3036;SDS011;1528;52.550;13.408;2023-04-07T09:12:37;14.50;;;13.73;;
3036;SDS011;1528;52.550;13.408;2023-04-07T09:15:24;15.40;;;14.70;;
3036;SDS011;1528;52.550;13.408;2023-04-07T09:18:13;16.20;;;15.40;;
3036;SDS011;1528;52.550;13.408;2023-04-07T09:21:01;14.10;;;13.40;;
3036;SDS011;1528;52.550;13.408;2023-04-07T09:23:48;15.27;;;14.57;;
3036;SDS011;1528;52.550;13.408;2023-04-07T09:26:34;15.83;;;15.13;;
3036;SDS011;1528;52.550;13.408;2023-04-07T09:29:20;15.90;;;15.10;;
3036;SDS011;1528;52.550;13.408;2023-04-07T09:32:07;14.97;;;14.37;;
3036;SDS011;1528;52.550;13.408;2023-04-07T09:34:57;14.00;;;13.20;;
3036;SDS011;1528;52.550;13.408;2023-04-07T09:37:44;14.83;;;14.13;;
3036;SDS011;1528;52.550;13.408;2023-04-07T09:40:44;14.90;;;14.00;;
3036;SDS011;1528;52.550;13.408;2023-04-07T09:43:31;15.17;;;14.47;;
3036;SDS011;1528;52.550;13.408;2023-04-07T09:46:18;15.50;;;14.90;;
3036;SDS011;1528;52.550;13.408;2023-04-07T09:49:05;14.70;;;14.03;;
3036;SDS011;1528;52.550;13.408;2023-04-07T09:51:52;13.83;;;13.13;;
3036;SDS011;1528;52.550;13.408;2023-04-07T09:54:39;14.13;;;13.43;;
3036;SDS011;1528;52.550;13.408;2023-04-07T09:57:25;12.43;;;11.73;;
3036;SDS011;1528;52.550;13.408;2023-04-07T10:00:12;12.77;;;12.10;;
3036;SDS011;1528;52.550;13.408;2023-04-07T10:02:58;15.20;;;14.60;;
3036;SDS011;1528;52.550;13.408;2023-04-07T10:05:47;14.10;;;13.40;;
3036;SDS011;1528;52.550;13.408;2023-04-07T10:08:33;15.83;;;14.80;;
3036;SDS011;1528;52.550;13.408;2023-04-07T10:11:21;14.70;;;14.10;;
3036;SDS011;1528;52.550;13.408;2023-04-07T10:14:07;12.97;;;12.37;;
3036;SDS011;1528;52.550;13.408;2023-04-07T10:16:54;14.97;;;14.27;;
3036;SDS011;1528;52.550;13.408;2023-04-07T10:19:40;16.83;;;16.13;;
3036;SDS011;1528;52.550;13.408;2023-04-07T10:22:27;13.17;;;12.57;;
3036;SDS011;1528;52.550;13.408;2023-04-07T10:25:15;12.93;;;12.30;;
3036;SDS011;1528;52.550;13.408;2023-04-07T10:28:05;14.13;;;13.43;;
3036;SDS011;1528;52.550;13.408;2023-04-07T10:30:54;13.90;;;12.90;;
3036;SDS011;1528;52.550;13.408;2023-04-07T10:33:43;14.70;;;14.10;;
3036;SDS011;1528;52.550;13.408;2023-04-07T10:36:30;15.40;;;14.80;;
3036;SDS011;1528;52.550;13.408;2023-04-07T10:39:21;16.33;;;15.53;;
3036;SDS011;1528;52.550;13.408;2023-04-07T10:42:07;19.33;;;18.23;;
3036;SDS011;1528;52.550;13.408;2023-04-07T10:48:59;16.53;;;15.70;;
3036;SDS011;1528;52.550;13.408;2023-04-07T10:55:33;16.60;;;15.80;;
3036;SDS011;1528;52.550;13.408;2023-04-07T10:58:21;16.17;;;15.37;;
3036;SDS011;1528;52.550;13.408;2023-04-07T11:04:13;18.07;;;17.17;;
3036;SDS011;1528;52.550;13.408;2023-04-07T11:06:59;16.10;;;15.40;;
3036;SDS011;1528;52.550;13.408;2023-04-07T11:09:44;17.20;;;16.30;;
3036;SDS011;1528;52.550;13.408;2023-04-07T11:12:32;16.40;;;15.60;;
3036;SDS011;1528;52.550;13.408;2023-04-07T11:15:18;18.20;;;17.20;;
3036;SDS011;1528;52.550;13.408;2023-04-07T11:18:05;19.40;;;18.50;;
3036;SDS011;1528;52.550;13.408;2023-04-07T11:20:51;18.53;;;17.53;;
3036;SDS011;1528;52.550;13.408;2023-04-07T11:23:38;17.40;;;16.60;;
3036;SDS011;1528;52.550;13.408;2023-04-07T11:26:25;18.93;;;18.03;;
3036;SDS011;1528;52.550;13.408;2023-04-07T11:29:14;17.97;;;17.07;;
3036;SDS011;1528;52.550;13.408;2023-04-07T11:32:00;19.40;;;18.50;;
3036;SDS011;1528;52.550;13.408;2023-04-07T11:34:46;18.60;;;17.70;;
3036;SDS011;1528;52.550;13.408;2023-04-07T11:37:32;19.73;;;18.73;;
3036;SDS011;1528;52.550;13.408;2023-04-07T11:40:30;20.33;;;19.43;;
3036;SDS011;1528;52.550;13.408;2023-04-07T11:43:17;19.63;;;18.70;;
3036;SDS011;1528;52.550;13.408;2023-04-07T11:46:06;18.83;;;17.93;;
3036;SDS011;1528;52.550;13.408;2023-04-07T11:48:53;20.37;;;19.33;;
3036;SDS011;1528;52.550;13.408;2023-04-07T11:51:39;18.33;;;17.43;;
3036;SDS011;1528;52.550;13.408;2023-04-07T11:54:27;19.23;;;18.23;;
3036;SDS011;1528;52.550;13.408;2023-04-07T11:57:23;17.33;;;16.53;;
3036;SDS011;1528;52.550;13.408;2023-04-07T12:00:10;16.47;;;15.37;;
3036;SDS011;1528;52.550;13.408;2023-04-07T12:03:09;17.03;;;16.13;;
3036;SDS011;1528;52.550;13.408;2023-04-07T12:05:57;17.60;;;16.70;;
3036;SDS011;1528;52.550;13.408;2023-04-07T12:08:42;15.90;;;14.97;;
3036;SDS011;1528;52.550;13.408;2023-04-07T12:11:28;16.80;;;16.00;;
3036;SDS011;1528;52.550;13.408;2023-04-07T12:14:14;17.10;;;15.97;;
3036;SDS011;1528;52.550;13.408;2023-04-07T12:17:00;16.93;;;16.13;;
3036;SDS011;1528;52.550;13.408;2023-04-07T12:19:47;16.40;;;15.50;;
3036;SDS011;1528;52.550;13.408;2023-04-07T12:22:32;17.37;;;16.50;;
3036;SDS011;1528;52.550;13.408;2023-04-07T12:25:18;17.70;;;16.90;;
3036;SDS011;1528;52.550;13.408;2023-04-07T12:28:04;17.60;;;16.70;;
3036;SDS011;1528;52.550;13.408;2023-04-07T12:30:49;16.33;;;15.53;;
3036;SDS011;1528;52.550;13.408;2023-04-07T12:33:35;29.67;;;27.07;;
3036;SDS011;1528;52.550;13.408;2023-04-07T12:36:22;17.33;;;16.43;;
3036;SDS011;1528;52.550;13.408;2023-04-07T12:39:08;15.73;;;14.80;;
3036;SDS011;1528;52.550;13.408;2023-04-07T12:41:53;16.33;;;15.43;;
3036;SDS011;1528;52.550;13.408;2023-04-07T12:44:40;16.17;;;15.27;;
3036;SDS011;1528;52.550;13.408;2023-04-07T12:47:26;15.90;;;15.00;;
3036;SDS011;1528;52.550;13.408;2023-04-07T12:50:12;13.13;;;12.23;;
3036;SDS011;1528;52.550;13.408;2023-04-07T12:52:59;13.47;;;12.83;;
3036;SDS011;1528;52.550;13.408;2023-04-07T12:55:46;11.07;;;10.47;;
3036;SDS011;1528;52.550;13.408;2023-04-07T12:58:32;12.30;;;11.70;;
3036;SDS011;1528;52.550;13.408;2023-04-07T13:01:17;12.67;;;12.13;;
3036;SDS011;1528;52.550;13.408;2023-04-07T13:04:03;12.90;;;12.20;;
3036;SDS011;1528;52.550;13.408;2023-04-07T13:06:48;12.53;;;12.03;;
3036;SDS011;1528;52.550;13.408;2023-04-07T13:09:35;14.23;;;13.53;;
3036;SDS011;1528;52.550;13.408;2023-04-07T13:12:21;15.80;;;14.90;;
3036;SDS011;1528;52.550;13.408;2023-04-07T13:15:07;15.60;;;14.80;;
3036;SDS011;1528;52.550;13.408;2023-04-07T13:17:53;12.27;;;11.67;;
3036;SDS011;1528;52.550;13.408;2023-04-07T13:20:39;13.30;;;12.70;;
3036;SDS011;1528;52.550;13.408;2023-04-07T13:23:25;11.60;;;10.97;;
3036;SDS011;1528;52.550;13.408;2023-04-07T13:26:12;14.03;;;13.43;;
3036;SDS011;1528;52.550;13.408;2023-04-07T13:28:58;14.17;;;13.53;;
3036;SDS011;1528;52.550;13.408;2023-04-07T13:31:44;13.43;;;12.93;;
3036;SDS011;1528;52.550;13.408;2023-04-07T13:34:29;12.50;;;11.53;;
3036;SDS011;1528;52.550;13.408;2023-04-07T13:37:15;13.30;;;12.70;;
3036;SDS011;1528;52.550;13.408;2023-04-07T13:40:02;13.20;;;12.60;;
3036;SDS011;1528;52.550;13.408;2023-04-07T13:42:50;15.13;;;14.43;;
3036;SDS011;1528;52.550;13.408;2023-04-07T13:45:35;13.60;;;13.00;;
3036;SDS011;1528;52.550;13.408;2023-04-07T13:48:21;13.43;;;12.80;;
3036;SDS011;1528;52.550;13.408;2023-04-07T13:51:07;13.87;;;13.07;;
3036;SDS011;1528;52.550;13.408;2023-04-07T13:53:53;11.63;;;11.00;;
3036;SDS011;1528;52.550;13.408;2023-04-07T13:56:39;11.93;;;11.23;;
3036;SDS011;1528;52.550;13.408;2023-04-07T13:59:26;13.23;;;12.53;;
3036;SDS011;1528;52.550;13.408;2023-04-07T14:02:12;12.73;;;12.13;;
3036;SDS011;1528;52.550;13.408;2023-04-07T14:04:57;12.93;;;12.33;;
3036;SDS011;1528;52.550;13.408;2023-04-07T14:07:43;12.07;;;11.47;;
3036;SDS011;1528;52.550;13.408;2023-04-07T14:10:29;15.00;;;14.30;;
3036;SDS011;1528;52.550;13.408;2023-04-07T14:13:16;12.60;;;12.00;;
3036;SDS011;1528;52.550;13.408;2023-04-07T14:16:03;12.20;;;11.60;;
3036;SDS011;1528;52.550;13.408;2023-04-07T14:18:50;12.30;;;11.60;;
3036;SDS011;1528;52.550;13.408;2023-04-07T14:21:36;14.80;;;14.10;;
3036;SDS011;1528;52.550;13.408;2023-04-07T14:24:21;13.10;;;12.40;;
3036;SDS011;1528;52.550;13.408;2023-04-07T14:27:07;12.40;;;11.80;;
3036;SDS011;1528;52.550;13.408;2023-04-07T14:29:53;12.67;;;11.97;;
3036;SDS011;1528;52.550;13.408;2023-04-07T14:32:42;13.13;;;12.33;;
3036;SDS011;1528;52.550;13.408;2023-04-07T14:35:27;12.17;;;11.57;;
3036;SDS011;1528;52.550;13.408;2023-04-07T14:38:13;12.30;;;11.80;;
3036;SDS011;1528;52.550;13.408;2023-04-07T14:40:59;13.07;;;12.37;;
3036;SDS011;1528;52.550;13.408;2023-04-07T14:43:45;13.20;;;12.50;;
3036;SDS011;1528;52.550;13.408;2023-04-07T14:46:33;14.40;;;13.60;;
3036;SDS011;1528;52.550;13.408;2023-04-07T14:49:20;14.90;;;14.10;;
3036;SDS011;1528;52.550;13.408;2023-04-07T14:52:07;14.27;;;13.37;;
3036;SDS011;1528;52.550;13.408;2023-04-07T14:54:53;11.50;;;11.00;;
3036;SDS011;1528;52.550;13.408;2023-04-07T14:57:39;14.27;;;13.57;;
3036;SDS011;1528;52.550;13.408;2023-04-07T15:00:25;13.97;;;13.47;;
3036;SDS011;1528;52.550;13.408;2023-04-07T15:03:11;12.87;;;12.20;;
3036;SDS011;1528;52.550;13.408;2023-04-07T15:05:58;12.80;;;12.10;;
3036;SDS011;1528;52.550;13.408;2023-04-07T15:08:44;11.70;;;11.10;;
3036;SDS011;1528;52.550;13.408;2023-04-07T15:11:29;12.17;;;11.67;;
3036;SDS011;1528;52.550;13.408;2023-04-07T15:14:16;11.00;;;10.50;;
3036;SDS011;1528;52.550;13.408;2023-04-07T15:17:02;11.20;;;10.50;;
3036;SDS011;1528;52.550;13.408;2023-04-07T15:19:48;11.80;;;11.20;;
3036;SDS011;1528;52.550;13.408;2023-04-07T15:22:35;11.17;;;10.57;;
3036;SDS011;1528;52.550;13.408;2023-04-07T15:25:20;10.47;;;9.97;;
3036;SDS011;1528;52.550;13.408;2023-04-07T15:28:06;11.70;;;11.20;;
3036;SDS011;1528;52.550;13.408;2023-04-07T15:30:52;10.37;;;9.87;;
3036;SDS011;1528;52.550;13.408;2023-04-07T15:33:38;10.60;;;10.00;;
3036;SDS011;1528;52.550;13.408;2023-04-07T15:36:24;11.47;;;10.87;;
3036;SDS011;1528;52.550;13.408;2023-04-07T15:39:11;14.40;;;13.70;;
3036;SDS011;1528;52.550;13.408;2023-04-07T15:41:56;15.67;;;14.90;;
3036;SDS011;1528;52.550;13.408;2023-04-07T15:44:42;14.03;;;13.03;;
3036;SDS011;1528;52.550;13.408;2023-04-07T15:47:28;13.70;;;12.90;;
3036;SDS011;1528;52.550;13.408;2023-04-07T15:50:13;11.33;;;10.73;;
3036;SDS011;1528;52.550;13.408;2023-04-07T15:52:59;11.73;;;10.83;;
3036;SDS011;1528;52.550;13.408;2023-04-07T15:55:48;13.97;;;13.27;;
3036;SDS011;1528;52.550;13.408;2023-04-07T15:58:34;14.37;;;13.60;;
3036;SDS011;1528;52.550;13.408;2023-04-07T16:01:20;14.60;;;14.00;;
3036;SDS011;1528;52.550;13.408;2023-04-07T16:04:05;13.73;;;13.13;;
3036;SDS011;1528;52.550;13.408;2023-04-07T16:06:51;12.00;;;11.40;;
3036;SDS011;1528;52.550;13.408;2023-04-07T16:09:37;12.90;;;12.40;;
3036;SDS011;1528;52.550;13.408;2023-04-07T16:12:24;13.43;;;12.70;;
3036;SDS011;1528;52.550;13.408;2023-04-07T16:15:10;15.10;;;14.30;;
3036;SDS011;1528;52.550;13.408;2023-04-07T16:17:56;13.47;;;12.67;;
3036;SDS011;1528;52.550;13.408;2023-04-07T16:20:41;14.67;;;14.07;;
3036;SDS011;1528;52.550;13.408;2023-04-07T16:23:27;13.50;;;12.87;;
3036;SDS011;1528;52.550;13.408;2023-04-07T16:26:13;14.87;;;14.17;;
3036;SDS011;1528;52.550;13.408;2023-04-07T16:28:59;14.00;;;13.30;;
3036;SDS011;1528;52.550;13.408;2023-04-07T16:31:45;15.67;;;14.87;;
3036;SDS011;1528;52.550;13.408;2023-04-07T16:34:31;14.50;;;13.80;;
3036;SDS011;1528;52.550;13.408;2023-04-07T16:37:16;15.90;;;15.03;;
3036;SDS011;1528;52.550;13.408;2023-04-07T16:40:02;17.53;;;16.53;;
3036;SDS011;1528;52.550;13.408;2023-04-07T16:42:49;16.57;;;15.87;;